createdAt,value
2022-09-13T00:00:33.734Z,12.82
2022-09-13T00:03:27.286Z,11.40
2022-09-13T00:06:08.464Z,16.67
2022-09-13T00:08:41.861Z,11.02
2022-09-13T00:11:23.996Z,9.73
2022-09-13T00:13:59.253Z,10.43
2022-09-13T00:16:31.971Z,16.15
2022-09-13T00:19:04.740Z,12.35
2022-09-13T00:21:37.234Z,13.45
2022-09-13T00:24:10.061Z,11.45
2022-09-13T00:26:42.654Z,14.23
2022-09-13T00:29:15.457Z,15.80
2022-09-13T00:31:48.069Z,8.70
2022-09-13T00:34:20.861Z,10.30
2022-09-13T00:36:53.377Z,10.68
2022-09-13T00:39:26.289Z,9.63
2022-09-13T00:41:58.846Z,9.82
2022-09-13T00:45:14.393Z,9.77
2022-09-13T00:48:02.159Z,11.48
2022-09-13T00:50:47.834Z,11.52
2022-09-13T00:53:27.830Z,14.48
2022-09-13T00:56:09.913Z,15.73
2022-09-13T00:59:38.401Z,15.57
2022-09-13T01:02:12.514Z,14.05
2022-09-13T01:04:45.341Z,21.23
2022-09-13T01:07:18.926Z,15.25
2022-09-13T01:09:53.166Z,15.82
2022-09-13T01:12:46.237Z,14.70
2022-09-13T01:15:18.945Z,18.83
2022-09-13T01:17:54.269Z,13.70
2022-09-13T01:20:49.905Z,15.27
2022-09-13T01:23:43.618Z,15.65
2022-09-13T01:26:31.157Z,20.88
2022-09-13T01:29:39.098Z,18.42
2022-09-13T01:32:11.704Z,12.80
2022-09-13T01:34:55.850Z,14.90
2022-09-13T01:37:47.050Z,15.27
2022-09-13T01:40:41.986Z,15.40
2022-09-13T01:43:29.337Z,16.77
2022-09-13T01:46:10.152Z,15.15
2022-09-13T01:49:00.192Z,16.60
2022-09-13T01:51:39.589Z,21.15
2022-09-13T01:54:29.264Z,16.40
2022-09-13T01:57:44.973Z,20.05
2022-09-13T02:00:18.904Z,15.52
2022-09-13T02:03:19.551Z,16.60
2022-09-13T02:06:14.899Z,14.27
2022-09-13T02:09:00.523Z,14.13
2022-09-13T02:11:34.783Z,18.17
2022-09-13T02:14:21.862Z,17.88
2022-09-13T02:17:17.395Z,18.42
2022-09-13T02:20:03.138Z,24.83
2022-09-13T02:22:42.095Z,21.65
2022-09-13T02:25:19.236Z,19.10
2022-09-13T02:27:59.022Z,18.40
2022-09-13T02:30:34.795Z,17.52
2022-09-13T02:33:24.415Z,24.58
2022-09-13T02:36:05.898Z,17.65
2022-09-13T02:38:42.279Z,20.65
2022-09-13T02:41:43.202Z,15.75
2022-09-13T02:47:11.743Z,15.10
2022-09-13T02:50:07.649Z,17.65
2022-09-13T02:52:52.663Z,15.55
2022-09-13T02:55:52.085Z,15.13
2022-09-13T02:58:39.936Z,19.03
2022-09-13T03:01:13.015Z,15.93
2022-09-13T03:03:45.841Z,14.88
2022-09-13T03:06:24.050Z,12.68
2022-09-13T03:09:00.773Z,20.20
2022-09-13T03:11:33.306Z,18.60
2022-09-13T03:14:53.267Z,17.25
2022-09-13T03:17:25.774Z,13.43
2022-09-13T03:20:18.605Z,13.07
2022-09-13T03:23:09.595Z,14.88
2022-09-13T03:26:15.822Z,17.77
2022-09-13T03:29:12.602Z,15.93
2022-09-13T03:31:57.403Z,19.83
2022-09-13T03:34:29.933Z,17.02
2022-09-13T03:37:13.233Z,14.13
2022-09-13T03:39:58.120Z,16.27
2022-09-13T03:42:51.053Z,12.23
2022-09-13T03:45:28.800Z,12.75
2022-09-13T03:48:03.826Z,12.95
2022-09-13T03:50:37.145Z,14.80
2022-09-13T03:53:12.546Z,14.65
2022-09-13T03:55:45.401Z,14.63
2022-09-13T03:58:20.241Z,15.15
2022-09-13T04:00:54.970Z,11.57
2022-09-13T04:03:27.985Z,12.18
2022-09-13T04:06:00.521Z,15.23
2022-09-13T04:08:33.954Z,11.93
2022-09-13T04:11:06.561Z,13.20
2022-09-13T04:13:39.309Z,12.13
2022-09-13T04:16:12.124Z,15.65
2022-09-13T04:18:45.114Z,12.88
2022-09-13T04:21:18.597Z,12.68
2022-09-13T04:23:51.361Z,14.65
2022-09-13T04:26:23.877Z,15.25
2022-09-13T04:28:56.677Z,16.15
2022-09-13T04:31:29.217Z,13.57
2022-09-13T04:34:02.147Z,19.08
2022-09-13T04:36:35.049Z,17.13
2022-09-13T04:39:07.892Z,16.10
2022-09-13T04:41:41.889Z,20.70
2022-09-13T04:44:16.731Z,18.52
2022-09-13T04:46:49.681Z,17.95
2022-09-13T04:49:22.456Z,18.65
2022-09-13T04:51:55.482Z,18.58
2022-09-13T04:54:28.285Z,22.77
2022-09-13T04:57:00.840Z,20.77
2022-09-13T04:59:34.061Z,18.90
2022-09-13T05:02:06.959Z,18.23
2022-09-13T05:04:39.780Z,22.58
2022-09-13T05:07:12.436Z,16.73
2022-09-13T05:09:48.420Z,22.77
2022-09-13T05:12:20.972Z,19.13
2022-09-13T05:14:53.986Z,22.80
2022-09-13T05:17:26.910Z,28.38
2022-09-13T05:19:59.685Z,25.17
2022-09-13T05:22:32.339Z,23.15
2022-09-13T05:25:05.825Z,20.20
2022-09-13T05:27:38.501Z,23.23
2022-09-13T05:30:12.088Z,22.20
2022-09-13T05:32:44.648Z,22.38
2022-09-13T05:35:17.400Z,21.73
2022-09-13T05:37:50.460Z,18.70
2022-09-13T05:40:24.884Z,17.95
2022-09-13T05:42:57.466Z,18.52
2022-09-13T05:45:30.251Z,18.88
2022-09-13T05:48:02.981Z,19.75
2022-09-13T05:50:57.958Z,17.10
2022-09-13T05:53:31.673Z,18.80
2022-09-13T05:56:04.585Z,24.80
2022-09-13T05:58:42.325Z,19.95
2022-09-13T06:01:23.960Z,17.08
2022-09-13T06:03:58.678Z,19.30
2022-09-13T06:06:31.740Z,17.33
2022-09-13T06:09:06.767Z,18.75
2022-09-13T06:11:40.311Z,15.73
2022-09-13T06:14:12.919Z,18.10
2022-09-13T06:16:45.695Z,14.60
2022-09-13T06:19:18.206Z,14.43
2022-09-13T06:21:50.949Z,17.23
2022-09-13T06:24:23.470Z,16.17
2022-09-13T06:26:56.261Z,18.15
2022-09-13T06:29:29.101Z,14.73
2022-09-13T06:32:02.566Z,18.70
2022-09-13T06:34:35.157Z,14.85
2022-09-13T06:37:08.185Z,16.30
2022-09-13T06:39:41.490Z,18.90
2022-09-13T06:42:14.298Z,17.23
2022-09-13T06:44:48.550Z,17.45
2022-09-13T06:47:21.431Z,13.52
2022-09-13T06:49:54.646Z,12.13
2022-09-13T06:52:28.050Z,11.63
2022-09-13T06:55:00.889Z,14.20
2022-09-13T06:57:34.104Z,13.23
2022-09-13T07:00:07.384Z,15.82
2022-09-13T07:02:40.136Z,15.30
2022-09-13T07:05:12.789Z,11.88
2022-09-13T07:07:45.620Z,13.20
2022-09-13T07:10:18.179Z,12.90
2022-09-13T07:12:51.008Z,14.45
2022-09-13T07:15:23.576Z,12.75
2022-09-13T07:17:56.292Z,11.57
2022-09-13T07:20:29.201Z,12.55
2022-09-13T07:23:01.972Z,11.05
2022-09-13T07:25:34.584Z,11.85
2022-09-13T07:28:07.395Z,12.85
2022-09-13T07:30:39.917Z,9.50
2022-09-13T07:33:12.920Z,18.58
2022-09-13T07:35:45.473Z,14.88
2022-09-13T07:38:18.198Z,12.68
2022-09-13T07:40:55.922Z,15.95
2022-09-13T07:43:29.489Z,12.27
2022-09-13T07:46:04.409Z,12.73
2022-09-13T07:48:39.973Z,12.15
2022-09-13T07:51:15.120Z,16.70
2022-09-13T07:53:52.570Z,24.45
2022-09-13T07:56:35.130Z,11.88
2022-09-13T07:59:13.147Z,12.65
2022-09-13T08:01:48.246Z,12.10
2022-09-13T08:04:25.613Z,16.35
2022-09-13T08:06:58.138Z,12.13
2022-09-13T08:09:30.833Z,19.10
2022-09-13T08:12:03.665Z,13.55
2022-09-13T08:14:36.429Z,10.07
2022-09-13T08:17:10.621Z,15.55
2022-09-13T08:19:43.353Z,13.45
2022-09-13T08:22:15.953Z,16.35
2022-09-13T08:24:48.675Z,12.93
2022-09-13T08:27:21.185Z,14.23
2022-09-13T08:29:53.936Z,10.63
2022-09-13T08:32:26.421Z,12.27
2022-09-13T08:34:59.604Z,13.18
2022-09-13T08:37:34.391Z,14.55
2022-09-13T08:40:07.770Z,15.25
2022-09-13T08:42:50.239Z,15.75
2022-09-13T08:45:23.445Z,12.82
2022-09-13T08:48:13.777Z,16.55
2022-09-13T08:50:48.160Z,12.15
2022-09-13T08:53:31.968Z,10.90
2022-09-13T08:56:10.621Z,12.32
2022-09-13T08:59:13.621Z,13.45
2022-09-13T09:02:11.094Z,11.07
2022-09-13T09:05:17.813Z,12.27
2022-09-13T09:08:01.558Z,10.35
2022-09-13T09:10:39.588Z,9.68
2022-09-13T09:13:32.844Z,11.25
2022-09-13T09:16:38.864Z,11.35
2022-09-13T09:19:46.036Z,6.90
2022-09-13T09:22:22.155Z,8.40
2022-09-13T09:24:56.823Z,6.05
2022-09-13T09:27:31.687Z,11.52
2022-09-13T09:30:06.526Z,12.68
2022-09-13T09:32:44.710Z,8.30
2022-09-13T09:35:35.536Z,5.70
2022-09-13T09:38:16.216Z,6.25
2022-09-13T09:40:49.086Z,5.95
2022-09-13T09:43:33.473Z,7.65
2022-09-13T09:46:08.925Z,6.95
2022-09-13T09:49:00.232Z,4.63
2022-09-13T09:51:34.069Z,9.55
2022-09-13T09:54:06.788Z,5.57
2022-09-13T09:56:54.042Z,5.97
2022-09-13T09:59:32.247Z,5.80
2022-09-13T10:02:20.557Z,5.43
2022-09-13T10:05:01.588Z,7.22
2022-09-13T10:07:35.848Z,7.82
2022-09-13T10:10:23.280Z,5.63
2022-09-13T10:12:57.491Z,4.60
2022-09-13T10:15:34.601Z,4.57
2022-09-13T10:18:42.390Z,5.43
2022-09-13T10:21:19.022Z,5.47
2022-09-13T10:24:11.927Z,6.65
2022-09-13T10:26:44.693Z,5.63
2022-09-13T10:29:18.814Z,5.55
2022-09-13T10:31:53.772Z,5.13
2022-09-13T10:34:33.651Z,3.92
2022-09-13T10:37:15.102Z,6.28
2022-09-13T10:39:59.243Z,4.50
2022-09-13T10:42:31.834Z,6.20
2022-09-13T10:45:09.015Z,3.85
2022-09-13T10:47:46.309Z,4.35
2022-09-13T10:50:28.704Z,4.18
2022-09-13T10:53:02.186Z,3.42
2022-09-13T10:55:44.009Z,5.55
2022-09-13T10:58:19.307Z,5.32
2022-09-13T11:01:16.950Z,4.10
2022-09-13T11:04:28.303Z,5.88
2022-09-13T11:07:09.762Z,4.18
2022-09-13T11:10:02.738Z,4.65
2022-09-13T11:12:53.311Z,4.10
2022-09-13T11:15:40.515Z,6.72
2022-09-13T11:18:37.983Z,7.53
2022-09-13T11:21:13.371Z,8.05
2022-09-13T11:23:58.214Z,5.10
2022-09-13T11:26:38.691Z,5.97
2022-09-13T11:29:23.522Z,4.57
2022-09-13T11:32:11.667Z,5.13
2022-09-13T11:35:02.676Z,5.45
2022-09-13T11:37:48.883Z,6.97
2022-09-13T11:40:36.824Z,4.95
2022-09-13T11:43:28.310Z,6.40
2022-09-13T11:46:07.034Z,4.28
2022-09-13T11:49:04.195Z,6.32
2022-09-13T11:51:52.571Z,6.03
2022-09-13T11:54:52.671Z,6.53
2022-09-13T11:57:38.323Z,4.03
2022-09-13T12:00:24.585Z,5.13
2022-09-13T12:03:18.709Z,5.38
2022-09-13T12:06:07.055Z,6.35
2022-09-13T12:08:52.866Z,6.15
2022-09-13T12:11:31.940Z,5.18
2022-09-13T12:14:24.731Z,3.60
2022-09-13T12:17:03.142Z,3.95
2022-09-13T12:19:46.038Z,7.25
2022-09-13T12:22:20.081Z,5.95
2022-09-13T12:25:51.557Z,8.15
2022-09-13T12:28:47.518Z,4.35
2022-09-13T12:34:41.864Z,7.13
2022-09-13T12:41:27.606Z,6.28
2022-09-13T12:44:09.225Z,5.38
2022-09-13T12:46:50.966Z,3.90
2022-09-13T12:49:45.632Z,4.38
2022-09-13T12:52:28.234Z,4.63
2022-09-13T12:55:48.577Z,4.72
2022-09-13T12:58:55.345Z,4.38
2022-09-13T13:01:31.012Z,3.58
2022-09-13T13:04:13.561Z,3.47
2022-09-13T13:06:54.929Z,3.60
2022-09-13T13:09:46.177Z,4.47
2022-09-13T13:12:37.725Z,4.13
2022-09-13T13:15:16.259Z,6.35
2022-09-13T13:17:58.054Z,5.35
2022-09-13T13:20:51.605Z,7.90
2022-09-13T13:23:27.131Z,4.45
2022-09-13T13:26:15.042Z,4.60
2022-09-13T13:28:47.880Z,4.35
2022-09-13T13:31:30.056Z,5.82
2022-09-13T13:34:15.030Z,7.05
2022-09-13T13:36:58.403Z,5.55
2022-09-13T13:39:31.319Z,5.60
2022-09-13T13:42:26.084Z,7.32
2022-09-13T13:45:02.179Z,6.32
2022-09-13T13:47:34.732Z,8.10
2022-09-13T13:50:19.786Z,7.13
2022-09-13T13:53:03.801Z,8.00
2022-09-13T13:55:41.763Z,4.72
2022-09-13T13:58:30.021Z,4.20
2022-09-13T14:01:03.100Z,4.30
2022-09-13T14:04:17.161Z,5.63
2022-09-13T14:07:29.987Z,3.60
2022-09-13T14:10:15.834Z,5.95
2022-09-13T14:13:14.360Z,4.80
2022-09-13T14:16:09.487Z,3.92
2022-09-13T14:18:58.083Z,6.43
2022-09-13T14:21:31.530Z,4.03
2022-09-13T14:24:23.892Z,5.70
2022-09-13T14:27:03.940Z,5.15
2022-09-13T14:29:44.488Z,10.15
2022-09-13T14:32:20.743Z,6.25
2022-09-13T14:34:56.310Z,4.35
2022-09-13T14:37:36.880Z,4.35
2022-09-13T14:40:21.986Z,7.25
2022-09-13T14:42:56.034Z,4.38
2022-09-13T14:45:41.422Z,5.65
2022-09-13T14:48:25.782Z,4.68
2022-09-13T14:51:08.878Z,5.18
2022-09-13T14:53:43.874Z,4.10
2022-09-13T14:56:29.873Z,4.22
2022-09-13T14:59:06.826Z,4.97
2022-09-13T15:01:39.557Z,5.07
2022-09-13T15:04:12.264Z,6.72
2022-09-13T15:06:45.341Z,3.95
2022-09-13T15:09:27.754Z,5.35
2022-09-13T15:12:01.804Z,6.88
2022-09-13T15:14:37.470Z,6.25
2022-09-13T15:17:14.132Z,4.65
2022-09-13T15:19:51.455Z,4.25
2022-09-13T15:22:28.430Z,4.68
2022-09-13T15:25:02.441Z,5.38
2022-09-13T15:27:47.471Z,7.05
2022-09-13T15:30:31.391Z,8.48
2022-09-13T15:33:31.404Z,9.25
2022-09-13T15:36:18.933Z,6.47
2022-09-13T15:39:02.780Z,5.32
2022-09-13T15:41:37.652Z,4.90
2022-09-13T15:44:10.661Z,5.35
2022-09-13T15:46:59.719Z,6.78
2022-09-13T15:49:32.686Z,7.07
2022-09-13T15:52:05.801Z,5.97
2022-09-13T15:54:41.438Z,7.53
2022-09-13T15:57:25.959Z,11.30
2022-09-13T16:00:02.633Z,7.70
2022-09-13T16:02:36.820Z,6.68
2022-09-13T16:05:10.315Z,8.60
2022-09-13T16:07:44.079Z,8.00
2022-09-13T16:10:20.097Z,11.45
2022-09-13T16:12:52.710Z,9.15
2022-09-13T16:15:25.564Z,8.82
2022-09-13T16:17:58.169Z,9.05
2022-09-13T16:20:31.132Z,8.13
2022-09-13T16:23:03.764Z,10.32
2022-09-13T16:25:37.772Z,8.30
2022-09-13T16:28:17.983Z,9.50
2022-09-13T16:30:51.704Z,9.38
2022-09-13T16:33:24.194Z,10.68
2022-09-13T16:36:01.992Z,9.98
2022-09-13T16:38:34.881Z,6.90
2022-09-13T16:41:08.012Z,6.60
2022-09-13T16:43:40.663Z,9.70
2022-09-13T16:46:14.872Z,10.38
2022-09-13T16:48:54.212Z,8.52
2022-09-13T16:51:27.508Z,8.27
2022-09-13T16:54:00.568Z,6.90
2022-09-13T16:56:33.495Z,8.15
2022-09-13T16:59:06.048Z,7.97
2022-09-13T17:01:38.911Z,9.30
2022-09-13T17:04:11.551Z,9.75
2022-09-13T17:06:44.519Z,10.77
2022-09-13T17:09:17.931Z,9.93
2022-09-13T17:11:51.098Z,8.95
2022-09-13T17:14:23.800Z,10.18
2022-09-13T17:16:58.086Z,13.27
2022-09-13T17:19:36.081Z,9.68
2022-09-13T17:22:11.251Z,7.65
2022-09-13T17:24:43.830Z,10.15
2022-09-13T17:27:16.528Z,12.50
2022-09-13T17:29:49.053Z,11.55
2022-09-13T17:32:21.742Z,12.68
2022-09-13T17:34:54.385Z,12.15
2022-09-13T17:37:27.146Z,14.32
2022-09-13T17:39:59.766Z,10.93
2022-09-13T17:42:32.505Z,14.85
2022-09-13T17:45:05.519Z,10.57
2022-09-13T17:47:38.321Z,13.25
2022-09-13T17:50:11.069Z,11.30
2022-09-13T17:52:43.847Z,15.88
2022-09-13T17:55:16.476Z,13.02
2022-09-13T17:57:49.920Z,14.77
2022-09-13T18:00:22.508Z,13.23
2022-09-13T18:02:55.224Z,13.68
2022-09-13T18:05:27.861Z,19.02
2022-09-13T18:08:00.805Z,19.05
2022-09-13T18:10:58.086Z,20.92
2022-09-13T18:13:26.566Z,14.73
2022-09-13T18:16:10.586Z,18.20
2022-09-13T18:18:46.209Z,23.42
2022-09-13T18:21:20.668Z,14.80
2022-09-13T18:23:55.437Z,13.73
2022-09-13T18:26:31.142Z,21.80
2022-09-13T18:29:06.829Z,18.67
2022-09-13T18:31:42.040Z,18.77
2022-09-13T18:34:15.207Z,29.98
2022-09-13T18:36:47.893Z,19.45
2022-09-13T18:39:22.621Z,14.52
2022-09-13T18:41:55.213Z,15.02
2022-09-13T18:44:30.417Z,21.08
2022-09-13T18:47:05.261Z,22.60
2022-09-13T18:49:37.948Z,13.82
2022-09-13T18:52:11.191Z,19.73
2022-09-13T18:54:43.903Z,17.02
2022-09-13T18:57:16.628Z,11.73
2022-09-13T18:59:49.328Z,14.63
2022-09-13T19:02:21.945Z,12.90
2022-09-13T19:04:54.741Z,7.78
2022-09-13T19:07:27.249Z,16.48
2022-09-13T19:09:59.913Z,25.23
2022-09-13T19:12:32.452Z,10.10
2022-09-13T19:15:05.981Z,11.68
2022-09-13T19:17:38.553Z,12.77
2022-09-13T19:20:11.445Z,13.65
2022-09-13T19:22:47.249Z,11.95
2022-09-13T19:25:20.333Z,9.85
2022-09-13T19:27:53.137Z,10.77
2022-09-13T19:30:25.869Z,13.80
2022-09-13T19:32:58.367Z,14.40
2022-09-13T19:35:31.051Z,11.27
2022-09-13T19:38:03.572Z,9.68
2022-09-13T19:40:36.544Z,14.13
2022-09-13T19:43:09.285Z,9.85
2022-09-13T19:45:42.053Z,10.38
2022-09-13T19:48:39.840Z,10.13
2022-09-13T19:51:10.199Z,10.48
2022-09-13T19:53:56.992Z,9.13
2022-09-13T19:56:35.773Z,14.40
2022-09-13T19:59:10.887Z,14.23
2022-09-13T20:01:45.503Z,15.35
2022-09-13T20:04:20.534Z,17.30
2022-09-13T20:06:53.456Z,23.15
2022-09-13T20:09:26.326Z,18.45
2022-09-13T20:12:00.631Z,26.58
2022-09-13T20:14:33.424Z,21.80
2022-09-13T20:17:07.215Z,24.95
2022-09-13T20:19:43.541Z,24.90
2022-09-13T20:22:19.252Z,30.38
2022-09-13T20:24:51.845Z,29.88
2022-09-13T20:27:28.904Z,26.98
2022-09-13T20:30:04.248Z,31.05
2022-09-13T20:32:36.995Z,33.28
2022-09-13T20:35:10.231Z,31.13
2022-09-13T20:37:46.148Z,27.65
2022-09-13T20:40:18.756Z,33.03
2022-09-13T20:42:52.085Z,34.45
2022-09-13T20:45:24.943Z,33.90
2022-09-13T20:47:57.697Z,34.25
2022-09-13T20:50:31.042Z,30.67
2022-09-13T20:53:03.765Z,41.00
2022-09-13T20:55:38.080Z,36.10
2022-09-13T20:58:12.280Z,40.47
2022-09-13T21:00:44.882Z,37.05
2022-09-13T21:03:17.751Z,36.78
2022-09-13T21:05:50.293Z,36.92
2022-09-13T21:08:41.441Z,40.85
2022-09-13T21:11:21.250Z,41.00
2022-09-13T21:13:58.385Z,39.20
2022-09-13T21:16:34.298Z,41.35
2022-09-13T21:19:08.051Z,37.72
2022-09-13T21:21:42.029Z,43.92
2022-09-13T21:24:15.058Z,36.55
2022-09-13T21:26:47.682Z,46.95
2022-09-13T21:29:20.482Z,43.25
2022-09-13T21:31:53.263Z,40.20
2022-09-13T21:34:27.447Z,43.03
2022-09-13T21:36:59.993Z,46.65
2022-09-13T21:39:32.838Z,49.05
2022-09-13T21:42:05.540Z,46.65
2022-09-13T21:44:38.786Z,51.55
2022-09-13T21:47:11.418Z,51.03
2022-09-13T21:49:44.498Z,45.83
2022-09-13T21:52:17.574Z,42.90
2022-09-13T21:54:50.295Z,53.22
2022-09-13T21:57:22.862Z,46.72
2022-09-13T21:59:55.735Z,50.55
2022-09-13T22:02:28.453Z,47.38
2022-09-13T22:05:01.262Z,44.45
2022-09-13T22:07:33.762Z,41.97
2022-09-13T22:10:06.827Z,49.72
2022-09-13T22:12:39.359Z,46.92
2022-09-13T22:15:12.343Z,47.30
2022-09-13T22:17:44.935Z,50.42
2022-09-13T22:20:17.698Z,31.92
2022-09-13T22:22:50.233Z,43.40
2022-09-13T22:25:22.955Z,38.05
2022-09-13T22:27:56.096Z,34.50
2022-09-13T22:30:28.893Z,43.70
2022-09-13T22:33:01.475Z,42.88
2022-09-13T22:35:34.167Z,41.95
2022-09-13T22:38:06.647Z,45.65
2022-09-13T22:40:39.315Z,43.50
2022-09-13T22:43:11.787Z,40.38
2022-09-13T22:45:44.622Z,41.75
2022-09-13T22:48:18.840Z,46.13
2022-09-13T22:50:54.949Z,49.42
2022-09-13T22:53:27.746Z,37.50
2022-09-13T22:56:30.670Z,42.58
2022-09-13T22:59:11.762Z,39.03
2022-09-13T23:01:45.400Z,43.75
2022-09-13T23:04:18.309Z,44.95
2022-09-13T23:06:51.285Z,39.15
2022-09-13T23:09:23.810Z,43.70
2022-09-13T23:11:56.516Z,47.03
2022-09-13T23:14:29.060Z,43.05
2022-09-13T23:17:02.083Z,42.75
2022-09-13T23:19:34.688Z,48.80
2022-09-13T23:22:07.386Z,43.80
2022-09-13T23:24:39.887Z,46.60
2022-09-13T23:27:12.586Z,46.72
2022-09-13T23:29:45.585Z,45.13
2022-09-13T23:32:18.245Z,42.92
2022-09-13T23:34:50.829Z,50.33
2022-09-13T23:37:23.591Z,47.83
2022-09-13T23:39:58.279Z,50.08
2022-09-13T23:42:31.701Z,54.92
2022-09-13T23:45:04.582Z,49.97
2022-09-13T23:47:37.511Z,54.35
2022-09-13T23:50:10.230Z,53.15
2022-09-13T23:52:43.111Z,49.72
2022-09-13T23:55:17.962Z,45.72
2022-09-13T23:57:50.666Z,54.05
